^^
Station Historical Data
 
Daily Summary for August 30, 2015 Units:  English    Metric   Both
« Previous Day
Next Day »
Daily Weekly Monthly Yearly Custom
  Current: High: Low: Average:
Temperature: 71.2 °F 71.2 °F 64.7 °F 66.7 °F
Dew Point: 65.1 °F 66.8 °F 63.5 °F 65.1 °F
Humidity: 81% 97% 81% 95%
Wind Speed: 1.0mph 2.0mph 0.0mph 1.1mph
Wind Gust: 3.0mph 4.0mph - -
WindNNE - - East
Pressure: 30.05 in 30.05 in 29.98 in -
Precipitation: 0.00 in      
Historical Graphs
 
 
Tabular Data for August 30, 2015
Time Temperature Dew Point Pressure Wind Wind Speed Wind Gust Humidity Rainfall Rate (Hourly)
00:09 68.3 °F 66.8 °F 29.99 in Calm     95% 0.00 in
00:19 68.2 °F 66.7 °F 29.99 in Calm   1.0 mph 95% 0.00 in
00:29 68.1 °F 66.6 °F 29.99 in Calm     95% 0.00 in
00:39 68.1 °F 66.6 °F 29.99 in Calm     95% 0.00 in
00:49 68.1 °F 66.6 °F 29.99 in Calm     95% 0.00 in
00:59 68.0 °F 66.5 °F 29.99 in Calm     95% 0.00 in
01:09 68.0 °F 66.5 °F 29.99 in Calm   1.0 mph 95% 0.00 in
01:19 68.0 °F 66.5 °F 29.98 in Calm     95% 0.00 in
01:29 67.9 °F 66.4 °F 29.98 in Calm   1.0 mph 95% 0.00 in
01:39 67.7 °F 66.2 °F 29.98 in Calm     95% 0.00 in
01:49 67.5 °F 66.0 °F 29.98 in Calm     95% 0.00 in
01:59 67.2 °F 65.7 °F 29.98 in Calm   1.0 mph 95% 0.00 in
02:09 66.9 °F 65.4 °F 29.98 in Calm   1.0 mph 95% 0.00 in
02:19 66.7 °F 65.2 °F 29.98 in Calm     95% 0.00 in
02:29 66.7 °F 65.5 °F 29.99 in Calm     96% 0.00 in
02:39 66.6 °F 65.4 °F 29.99 in Calm   1.0 mph 96% 0.00 in
02:49 66.5 °F 65.3 °F 29.99 in Calm   1.0 mph 96% 0.00 in
02:59 66.5 °F 65.3 °F 29.98 in Calm   1.0 mph 96% 0.00 in
03:09 66.5 °F 65.3 °F 29.98 in Calm   1.0 mph 96% 0.00 in
03:19 66.5 °F 65.3 °F 29.98 in Calm   1.0 mph 96% 0.00 in
03:29 66.5 °F 65.3 °F 29.98 in Calm   1.0 mph 96% 0.00 in
03:39 66.4 °F 65.2 °F 29.99 in Calm   2.0 mph 96% 0.00 in
03:49 66.3 °F 65.2 °F 29.99 in North 1.0 mph 2.0 mph 96% 0.00 in
03:59 66.2 °F 65.0 °F 29.99 in Calm   1.0 mph 96% 0.00 in
04:09 66.1 °F 64.9 °F 29.99 in Calm     96% 0.00 in
04:19 66.0 °F 64.8 °F 29.99 in Calm     96% 0.00 in
04:29 65.9 °F 64.7 °F 29.99 in Calm   1.0 mph 96% 0.00 in
04:39 65.8 °F 64.6 °F 29.99 in Calm   1.0 mph 96% 0.00 in
04:49 65.7 °F 64.5 °F 29.99 in Calm   1.0 mph 96% 0.00 in
04:59 65.6 °F 64.4 °F 29.99 in Calm   1.0 mph 96% 0.00 in
05:09 65.5 °F 64.3 °F 29.99 in Calm   1.0 mph 96% 0.00 in
05:19 65.5 °F 64.3 °F 29.99 in Calm   1.0 mph 96% 0.00 in
05:29 65.5 °F 64.3 °F 30.00 in Calm   1.0 mph 96% 0.00 in
05:39 65.4 °F 64.2 °F 30.00 in Calm   1.0 mph 96% 0.00 in
05:49 65.2 °F 64.3 °F 30.00 in Calm   1.0 mph 97% 0.00 in
05:59 65.0 °F 63.8 °F 30.01 in North 1.0 mph 2.0 mph 96% 0.00 in
06:09 64.9 °F 63.7 °F 30.01 in Calm   2.0 mph 96% 0.00 in
06:19 64.7 °F 63.5 °F 30.01 in North 1.0 mph 3.0 mph 96% 0.00 in
06:29 64.7 °F 63.8 °F 30.02 in Calm   2.0 mph 97% 0.00 in
06:39 64.7 °F 63.8 °F 30.02 in Calm   1.0 mph 97% 0.00 in
06:49 64.7 °F 63.8 °F 30.03 in Calm   1.0 mph 97% 0.00 in
06:59 64.8 °F 63.9 °F 30.03 in Calm   1.0 mph 97% 0.00 in
07:09 64.9 °F 64.0 °F 30.03 in Calm   1.0 mph 97% 0.00 in
07:19 65.0 °F 64.1 °F 30.03 in Calm   1.0 mph 97% 0.00 in
07:29 65.0 °F 63.8 °F 30.03 in Calm   1.0 mph 96% 0.00 in
07:39 65.2 °F 64.3 °F 30.03 in Calm   1.0 mph 97% 0.00 in
07:49 65.3 °F 64.1 °F 30.03 in Calm   1.0 mph 96% 0.00 in
07:59 65.3 °F 64.1 °F 30.04 in Calm   2.0 mph 96% 0.00 in
08:09 65.4 °F 64.2 °F 30.04 in Calm   2.0 mph 96% 0.00 in
08:19 65.5 °F 64.3 °F 30.04 in North 1.0 mph 2.0 mph 96% 0.00 in
08:29 65.6 °F 64.5 °F 30.04 in Calm   1.0 mph 96% 0.00 in
08:39 65.9 °F 64.7 °F 30.04 in Calm   2.0 mph 96% 0.00 in
08:49 66.2 °F 65.1 °F 30.04 in North 1.0 mph 2.0 mph 96% 0.00 in
08:59 66.6 °F 65.1 °F 30.03 in North 1.0 mph 3.0 mph 95% 0.00 in
09:09 67.5 °F 66.0 °F 30.04 in NNE 1.0 mph 1.0 mph 95% 0.00 in
09:19 68.0 °F 65.6 °F 30.04 in NNE 2.0 mph 4.0 mph 92% 0.00 in
09:29 68.4 °F 65.7 °F 30.04 in NNE 1.0 mph 3.0 mph 91% 0.00 in
09:39 68.7 °F 65.6 °F 30.05 in Calm   2.0 mph 90% 0.00 in
09:49 68.9 °F 65.5 °F 30.05 in Calm   2.0 mph 89% 0.00 in
09:59 69.2 °F 66.1 °F 30.05 in Calm   1.0 mph 90% 0.00 in
10:09 69.6 °F 66.2 °F 30.05 in Calm   2.0 mph 89% 0.00 in
10:19 70.0 °F 66.0 °F 30.05 in Calm   2.0 mph 87% 0.00 in
10:29 70.4 °F 66.0 °F 30.05 in NNE 1.0 mph 3.0 mph 86% 0.00 in
10:39 70.8 °F 65.7 °F 30.05 in NNE 1.0 mph 3.0 mph 84% 0.00 in
10:49 71.2 °F 65.1 °F 30.05 in NNE 1.0 mph 3.0 mph 81% 0.00 in
jolietwx - Weather
Compliments of Weather Underground